Time;durP1;ratioP1;P1;durP2;ratioP2;P2;SDS_P1;SDS_P2;PMS_P1;PMS_P2;Temp;Humidity;BMP_temperature;BMP_pressure;BME280_temperature;BME280_humidity;BME280_pressure;Samples;Min_cycle;Max_cycle;Signal;HPM_P1;HPM_P2
2022/01/11 00:00:58;;;;;;;2.47;2.28;;;;;;;4.42;67.10;103095.41;4995355;28;20125;-86
2022/01/11 00:03:24;;;;;;;0.35;0.35;;;;;;;4.38;67.01;103093.47;4995296;28;20034;-90
2022/01/11 00:05:57;;;;;;;0.10;0.10;;;;;;;4.43;67.06;103096.31;4995646;28;20081;-85
2022/01/11 00:08:32;;;;;;;0.35;0.35;;;;;;;4.42;67.18;103099.75;4995323;28;20030;-84
2022/01/11 00:11:04;;;;;;;0.10;0.10;;;;;;;4.38;66.79;103103.97;4993395;28;20088;-87
2022/01/11 00:13:32;;;;;;;1.10;1.10;;;;;;;4.42;67.19;103105.91;4992422;28;20501;-88
2022/01/11 00:18:35;;;;;;;0.20;0.20;;;;;;;4.41;66.61;103104.13;5211434;23;20054;-79
2022/01/11 00:21:02;;;;;;;0.10;0.10;;;;;;;4.36;66.88;103100.38;4994089;28;20433;-80
2022/01/11 00:26:12;;;;;;;0.10;0.10;;;;;;;4.39;66.99;103111.03;5068701;28;20402;-79
2022/01/11 00:28:38;;;;;;;0.10;0.10;;;;;;;4.36;66.86;103110.88;5052414;28;20192;-80
2022/01/11 00:31:07;;;;;;;0.10;0.10;;;;;;;4.38;66.81;103115.38;5043248;28;20083;-81
2022/01/11 00:33:38;;;;;;;0.10;0.10;;;;;;;4.44;67.29;103109.50;5044149;28;20025;-80
2022/01/11 00:36:07;;;;;;;0.10;0.10;;;;;;;4.51;67.20;103106.28;5040927;28;20029;-81
2022/01/11 00:38:36;;;;;;;0.13;0.13;;;;;;;4.54;66.72;103109.03;5047599;28;20062;-81
2022/01/11 00:41:06;;;;;;;0.10;0.10;;;;;;;4.60;66.81;103112.75;5043598;28;20029;-81
2022/01/11 00:43:34;;;;;;;0.10;0.10;;;;;;;4.57;66.75;103110.88;5046483;28;20488;-81
2022/01/11 00:46:00;;;;;;;0.20;0.20;;;;;;;4.57;66.86;103117.88;5038274;28;20088;-80
2022/01/11 00:48:27;;;;;;;0.10;0.10;;;;;;;4.57;66.80;103125.75;5049089;28;20026;-81
2022/01/11 00:50:55;;;;;;;0.20;0.20;;;;;;;4.54;66.70;103121.28;5042498;28;20048;-81
2022/01/11 00:53:22;;;;;;;0.10;0.10;;;;;;;4.63;66.87;103120.75;5052596;28;20124;-82
2022/01/11 00:55:50;;;;;;;0.10;0.10;;;;;;;4.54;66.73;103124.78;5044642;28;20480;-81
2022/01/11 00:58:18;;;;;;;0.30;0.30;;;;;;;4.53;66.57;103123.00;5049382;28;20074;-81
2022/01/11 01:00:45;;;;;;;5.13;1.65;;;;;;;4.56;67.11;103123.97;5046132;28;20376;-81
2022/01/11 01:03:11;;;;;;;0.10;0.10;;;;;;;4.46;67.18;103123.59;5053557;28;20029;-80
2022/01/11 01:05:39;;;;;;;0.65;0.65;;;;;;;4.42;67.04;103116.41;5049244;28;20591;-81
2022/01/11 01:08:06;;;;;;;0.40;0.40;;;;;;;4.50;66.86;103120.25;5049074;28;20044;-81
2022/01/11 01:10:36;;;;;;;0.15;0.15;;;;;;;4.48;66.84;103123.66;5044977;28;20107;-81
2022/01/11 01:13:06;;;;;;;0.52;0.52;;;;;;;4.51;67.24;103115.88;5045155;28;20397;-80
2022/01/11 01:15:34;;;;;;;0.13;0.13;;;;;;;4.57;66.82;103107.38;5042723;28;20032;-81
2022/01/11 01:18:01;;;;;;;0.13;0.13;;;;;;;4.57;67.44;103107.38;5043096;28;20040;-82
2022/01/11 01:20:37;;;;;;;0.10;0.10;;;;;;;4.65;67.33;103114.75;5045679;28;20036;-81
2022/01/11 01:23:04;;;;;;;1.42;1.42;;;;;;;4.59;66.84;103113.59;5045764;28;20039;-80
2022/01/11 01:25:30;;;;;;;0.70;0.70;;;;;;;4.57;67.09;103115.25;5045142;28;20037;-79
2022/01/11 01:27:56;;;;;;;1.10;1.08;;;;;;;4.48;66.95;103119.28;5040030;28;20459;-82
2022/01/11 01:30:23;;;;;;;0.40;0.40;;;;;;;4.50;67.28;103122.88;5041029;28;20025;-81
2022/01/11 01:32:51;;;;;;;4.28;1.42;;;;;;;4.54;67.08;103124.78;5046609;28;20387;-80
2022/01/11 01:35:19;;;;;;;0.30;0.30;;;;;;;4.51;67.16;103132.56;5047096;28;20063;-81
2022/01/11 01:37:46;;;;;;;1.17;1.17;;;;;;;4.48;66.97;103139.41;5029383;28;20105;-81
2022/01/11 01:40:16;;;;;;;0.55;0.55;;;;;;;4.48;67.33;103134.16;5030121;28;20026;-80
2022/01/11 01:42:43;;;;;;;0.30;0.30;;;;;;;4.53;66.79;103136.13;5030631;28;20037;-82
2022/01/11 01:45:10;;;;;;;0.57;0.57;;;;;;;4.57;66.94;103136.25;5029110;28;20538;-80
2022/01/11 01:47:37;;;;;;;0.17;0.17;;;;;;;4.60;66.93;103141.63;5028020;22;20368;-88
2022/01/11 01:50:06;;;;;;;0.10;0.10;;;;;;;4.53;67.00;103146.63;4997021;28;20473;-88
2022/01/11 01:52:43;;;;;;;0.28;0.28;;;;;;;4.63;67.12;103153.16;5001145;28;20106;-81
2022/01/11 01:55:25;;;;;;;1.95;1.85;;;;;;;4.56;67.02;103156.38;5000383;28;20034;-83
2022/01/11 01:58:00;;;;;;;2.13;1.98;;;;;;;4.62;67.19;103156.63;4996188;28;20030;-81
2022/01/11 02:00:41;;;;;;;0.20;0.20;;;;;;;4.62;67.21;103150.47;4994940;28;20026;-84
2022/01/11 02:03:11;;;;;;;0.35;0.35;;;;;;;4.61;66.94;103153.94;4996040;28;20057;-87
2022/01/11 02:05:40;;;;;;;0.10;0.10;;;;;;;4.61;66.71;103152.22;4996299;28;20092;-89
2022/01/11 02:08:07;;;;;;;0.10;0.10;;;;;;;4.58;67.21;103153.81;4998695;28;20107;-87
2022/01/11 02:10:36;;;;;;;1.30;1.20;;;;;;;4.68;66.86;103155.97;4998530;28;20026;-87
2022/01/11 02:13:04;;;;;;;1.33;1.33;;;;;;;4.64;66.47;103154.06;4997436;28;20018;-81
2022/01/11 02:15:31;;;;;;;0.45;0.45;;;;;;;4.64;66.24;103156.69;4995926;28;20142;-84
2022/01/11 02:18:15;;;;;;;0.75;0.75;;;;;;;4.77;66.72;103160.72;4996216;28;20026;-83
2022/01/11 02:20:44;;;;;;;0.10;0.10;;;;;;;4.66;66.74;103153.31;4998081;28;20034;-85
2022/01/11 02:23:11;;;;;;;0.10;0.10;;;;;;;4.69;66.97;103152.53;4997466;28;20054;-87
2022/01/11 02:25:38;;;;;;;0.10;0.10;;;;;;;4.72;66.70;103151.75;4996609;28;20026;-87
2022/01/11 02:28:13;;;;;;;2.92;0.95;;;;;;;4.77;66.18;103156.38;4999735;28;20491;-83
2022/01/11 02:30:39;;;;;;;0.47;0.47;;;;;;;4.72;66.57;103159.63;4997983;28;20034;-87
2022/01/11 02:33:12;;;;;;;1.35;1.35;;;;;;;4.66;66.35;103149.75;4999170;28;20022;-81
2022/01/11 02:35:39;;;;;;;0.90;0.90;;;;;;;4.68;66.10;103155.97;4998056;28;20034;-87
2022/01/11 02:38:05;;;;;;;0.17;0.17;;;;;;;4.69;66.05;103158.66;4996784;28;20026;-80
2022/01/11 02:40:31;;;;;;;0.60;0.60;;;;;;;4.71;65.96;103158.75;4995284;28;20100;-85
2022/01/11 02:42:57;;;;;;;0.10;0.10;;;;;;;4.75;66.16;103162.38;4997651;28;20492;-81
2022/01/11 02:45:24;;;;;;;1.08;1.00;;;;;;;4.79;66.38;103157.31;4994358;28;20354;-84
2022/01/11 02:47:51;;;;;;;0.47;0.45;;;;;;;4.79;66.43;103159.94;4994008;28;20385;-86
2022/01/11 02:50:19;;;;;;;0.10;0.10;;;;;;;4.82;66.49;103167.06;4992739;28;21052;-87
2022/01/11 02:52:45;;;;;;;0.13;0.13;;;;;;;4.85;66.11;103157.56;4998502;28;20030;-87
2022/01/11 02:55:15;;;;;;;2.75;2.55;;;;;;;4.92;66.27;103156.13;4993483;28;20179;-82
2022/01/11 02:57:41;;;;;;;2.42;2.25;;;;;;;4.84;66.32;103157.50;4996263;28;20031;-85
2022/01/11 03:00:11;;;;;;;3.50;0.95;;;;;;;4.86;66.28;103156.75;4996400;28;20038;-86
2022/01/11 03:02:38;;;;;;;0.30;0.30;;;;;;;4.75;66.05;103150.16;4999340;28;20045;-87
2022/01/11 03:05:07;;;;;;;0.55;0.55;;;;;;;4.77;65.85;103156.38;4993501;28;20389;-85
2022/01/11 03:07:33;;;;;;;0.30;0.30;;;;;;;4.72;65.96;103160.53;4994209;28;20036;-87
2022/01/11 03:10:04;;;;;;;0.13;0.13;;;;;;;4.73;66.04;103162.31;4990527;28;20066;-84
2022/01/11 03:12:31;;;;;;;1.08;1.08;;;;;;;4.78;65.85;103168.66;4992795;28;20039;-85
2022/01/11 03:14:57;;;;;;;2.08;1.75;;;;;;;4.78;66.14;103166.03;4994563;28;20030;-87
2022/01/11 03:17:25;;;;;;;2.50;1.70;;;;;;;4.77;65.82;103171.22;4994368;28;20122;-81
2022/01/11 03:19:53;;;;;;;0.20;0.20;;;;;;;4.71;65.87;103169.25;4993392;28;20027;-83
2022/01/11 03:22:20;;;;;;;0.10;0.10;;;;;;;4.72;65.99;103176.28;4996332;28;20026;-86
2022/01/11 03:24:47;;;;;;;1.17;1.17;;;;;;;4.65;66.49;103185.63;4996193;28;20041;-86
2022/01/11 03:27:13;;;;;;;0.13;0.13;;;;;;;4.61;66.13;103198.56;4994150;28;20022;-80
2022/01/11 03:29:40;;;;;;;0.90;0.90;;;;;;;4.73;66.25;103198.19;4994424;28;20121;-87
2022/01/11 03:32:07;;;;;;;0.57;0.57;;;;;;;4.71;66.22;103200.78;4992487;28;20034;-84
2022/01/11 03:34:34;;;;;;;0.20;0.20;;;;;;;4.72;66.11;103199.91;4993792;28;20030;-87
2022/01/11 03:37:00;;;;;;;0.25;0.25;;;;;;;4.70;66.19;103202.47;4993507;28;20034;-86
2022/01/11 03:39:27;;;;;;;2.10;1.45;;;;;;;4.73;66.45;103199.09;4994210;28;20578;-85
2022/01/11 03:41:54;;;;;;;0.10;0.10;;;;;;;4.73;65.88;103191.22;4993883;28;20032;-87
2022/01/11 03:44:20;;;;;;;0.13;0.13;;;;;;;4.72;66.38;103194.66;4993430;28;20037;-88
2022/01/11 03:46:46;;;;;;;1.80;1.75;;;;;;;4.77;66.42;103182.66;4995311;28;20033;-84
2022/01/11 03:49:12;;;;;;;0.75;0.73;;;;;;;4.78;66.14;103184.41;4995015;28;20113;-82
2022/01/11 03:51:39;;;;;;;0.30;0.30;;;;;;;4.79;66.10;103175.72;5001876;28;20034;-84
2022/01/11 03:54:11;;;;;;;0.50;0.50;;;;;;;4.78;66.46;103179.16;4999769;28;20045;-87
2022/01/11 03:56:38;;;;;;;0.32;0.32;;;;;;;4.79;66.10;103175.72;5001711;28;20542;-85
2022/01/11 03:59:07;;;;;;;2.15;1.83;;;;;;;4.72;66.26;103168.41;4997990;28;20380;-87
2022/01/11 04:01:34;;;;;;;0.20;0.20;;;;;;;4.75;66.44;103165.91;4998310;28;20027;-83
2022/01/11 04:04:01;;;;;;;0.20;0.20;;;;;;;4.66;66.51;103161.19;4995360;28;20041;-86
2022/01/11 04:06:29;;;;;;;0.75;0.75;;;;;;;4.70;66.32;103159.59;4992589;28;20065;-87
2022/01/11 04:08:55;;;;;;;0.10;0.10;;;;;;;4.62;66.58;103160.97;4994304;28;20044;-87
2022/01/11 04:11:21;;;;;;;0.95;0.95;;;;;;;4.65;66.38;103163.75;4994269;28;20035;-87
2022/01/11 04:13:47;;;;;;;3.83;1.58;;;;;;;4.66;66.54;103166.44;4994488;28;20026;-86
2022/01/11 04:16:14;;;;;;;0.68;0.68;;;;;;;4.66;66.46;103158.56;4993212;28;20065;-83
2022/01/11 04:18:41;;;;;;;7.05;2.05;;;;;;;4.67;66.58;103164.69;4993517;28;20590;-87
2022/01/11 04:21:08;;;;;;;0.47;0.47;;;;;;;4.72;65.94;103168.41;4993774;28;20066;-87
2022/01/11 04:23:35;;;;;;;0.20;0.20;;;;;;;4.74;66.36;103172.00;4993592;28;20034;-86
2022/01/11 04:26:02;;;;;;;0.28;0.28;;;;;;;4.78;65.95;103179.16;4993360;28;20038;-85
2022/01/11 04:28:28;;;;;;;0.10;0.10;;;;;;;4.83;65.93;103180.25;4993467;28;20041;-85
2022/01/11 04:31:00;;;;;;;2.63;0.68;;;;;;;4.81;66.24;103173.13;4993547;28;20109;-86
2022/01/11 04:33:27;;;;;;;0.38;0.38;;;;;;;4.83;66.04;103177.63;4993441;28;20031;-86
2022/01/11 04:35:54;;;;;;;0.20;0.20;;;;;;;4.79;66.04;103175.72;4993429;28;20030;-86
2022/01/11 04:38:23;;;;;;;0.20;0.20;;;;;;;4.74;66.03;103179.88;4989367;28;20033;-87
2022/01/11 04:40:50;;;;;;;0.10;0.10;;;;;;;4.75;65.96;103183.38;4992824;28;20366;-84
2022/01/11 04:43:16;;;;;;;8.57;3.75;;;;;;;4.77;65.69;103176.47;4992875;28;20025;-88
2022/01/11 04:45:42;;;;;;;0.10;0.10;;;;;;;4.75;65.83;103176.41;4993386;28;20399;-85
2022/01/11 04:48:10;;;;;;;0.45;0.45;;;;;;;4.74;66.16;103179.88;4992882;28;20030;-87
2022/01/11 04:50:36;;;;;;;0.10;0.10;;;;;;;4.77;66.16;103180.03;4992261;28;20034;-86
2022/01/11 04:53:03;;;;;;;0.35;0.35;;;;;;;4.75;66.40;103178.13;4993209;28;20088;-87
2022/01/11 04:55:31;;;;;;;0.55;0.55;;;;;;;4.73;66.45;103185.06;4993438;28;20433;-88
2022/01/11 04:57:58;;;;;;;1.38;1.38;;;;;;;4.74;66.06;103194.75;4993370;28;20041;-87
2022/01/11 05:00:26;;;;;;;1.38;1.30;;;;;;;4.69;66.47;103184.94;4987434;28;20026;-85
2022/01/11 05:02:56;;;;;;;0.10;0.10;;;;;;;4.72;66.19;103178.03;4993365;28;20041;-83
2022/01/11 05:05:23;;;;;;;0.10;0.10;;;;;;;4.71;65.89;103192.91;4993622;28;20046;-86
2022/01/11 05:07:49;;;;;;;0.10;0.10;;;;;;;4.71;66.21;103190.28;4992886;28;20389;-86
2022/01/11 05:10:15;;;;;;;0.10;0.10;;;;;;;4.67;66.33;103188.31;4992738;28;20477;-87
2022/01/11 05:12:41;;;;;;;0.22;0.22;;;;;;;4.61;66.33;103188.06;4996006;28;20037;-86
2022/01/11 05:15:09;;;;;;;1.67;0.63;;;;;;;4.62;65.93;103192.47;4996806;28;20030;-87
2022/01/11 05:17:36;;;;;;;0.75;0.75;;;;;;;4.52;66.24;103194.72;4996978;28;20481;-87
2022/01/11 05:20:05;;;;;;;0.20;0.20;;;;;;;4.49;66.29;103191.97;4996916;28;20035;-87
2022/01/11 05:22:31;;;;;;;0.40;0.40;;;;;;;4.48;66.39;103190.16;4996119;28;20035;-88
2022/01/11 05:24:57;;;;;;;0.20;0.20;;;;;;;4.49;66.42;103191.06;4996147;28;20039;-88
2022/01/11 05:27:24;;;;;;;0.10;0.10;;;;;;;4.44;66.38;103188.25;4996288;28;20039;-88
2022/01/11 05:29:50;;;;;;;0.15;0.15;;;;;;;4.51;66.71;103202.53;4996210;28;20026;-87
2022/01/11 05:32:16;;;;;;;0.13;0.13;;;;;;;4.46;66.32;103202.34;4995723;28;20038;-85
2022/01/11 05:34:43;;;;;;;0.10;0.10;;;;;;;4.49;66.79;103207.72;4996413;28;20084;-86
2022/01/11 05:37:09;;;;;;;0.55;0.55;;;;;;;4.40;66.74;103204.69;4998125;28;20042;-86
2022/01/11 05:39:36;;;;;;;0.73;0.73;;;;;;;4.44;66.74;103201.38;5009099;28;20035;-86
2022/01/11 05:42:06;;;;;;;0.20;0.20;;;;;;;4.42;66.81;103200.41;5004034;28;20132;-84
2022/01/11 05:44:33;;;;;;;1.02;0.98;;;;;;;4.35;66.71;103203.59;5004628;28;20063;-86
2022/01/11 05:47:00;;;;;;;0.52;0.52;;;;;;;4.36;66.46;103208.00;4997380;28;20041;-87
2022/01/11 05:49:26;;;;;;;0.95;0.95;;;;;;;4.26;67.05;103208.44;4991444;28;20058;-87
2022/01/11 05:51:52;;;;;;;0.28;0.28;;;;;;;4.31;66.58;103213.06;4996140;28;20030;-87
2022/01/11 05:54:18;;;;;;;0.20;0.20;;;;;;;4.26;67.21;103222.47;4998060;28;20491;-86
2022/01/11 05:56:44;;;;;;;0.30;0.30;;;;;;;4.25;66.71;103217.13;5003100;28;20516;-80
2022/01/11 05:59:10;;;;;;;0.30;0.30;;;;;;;4.18;67.32;103215.97;4996405;28;20031;-85
2022/01/11 06:01:38;;;;;;;1.13;1.13;;;;;;;4.17;66.94;103211.53;5001984;28;20033;-87
2022/01/11 06:04:04;;;;;;;0.60;0.60;;;;;;;4.21;67.29;103211.75;4988273;28;20062;-86
2022/01/11 06:06:30;;;;;;;0.13;0.13;;;;;;;4.19;66.82;103205.53;4995854;28;20046;-86
2022/01/11 06:08:56;;;;;;;0.20;0.20;;;;;;;4.23;66.78;103210.94;4996331;28;20045;-87
2022/01/11 06:11:22;;;;;;;1.95;1.65;;;;;;;4.19;67.16;103210.78;4995164;28;20030;-84
2022/01/11 06:13:51;;;;;;;0.10;0.10;;;;;;;4.24;67.07;103212.69;4999066;28;20423;-88
2022/01/11 06:16:17;;;;;;;1.45;1.45;;;;;;;4.17;66.79;103204.56;4995906;28;20031;-85
2022/01/11 06:18:45;;;;;;;3.33;0.88;;;;;;;4.13;67.07;103212.25;4996210;28;20038;-85
2022/01/11 06:21:11;;;;;;;0.10;0.10;;;;;;;4.20;66.98;103220.47;4995768;28;20034;-85
2022/01/11 06:23:37;;;;;;;0.20;0.20;;;;;;;4.12;67.06;103216.59;4995270;28;20747;-86
2022/01/11 06:26:04;;;;;;;0.10;0.10;;;;;;;4.13;67.03;103225.38;4994825;28;20130;-86
2022/01/11 06:28:30;;;;;;;0.40;0.40;;;;;;;4.11;66.80;103227.94;4994999;28;20069;-86
2022/01/11 06:30:56;;;;;;;0.43;0.43;;;;;;;4.04;67.39;103213.63;4995102;28;20034;-86
2022/01/11 06:33:23;;;;;;;0.65;0.65;;;;;;;4.07;67.52;103222.47;4995787;28;20042;-86
2022/01/11 06:35:49;;;;;;;0.35;0.35;;;;;;;3.98;67.20;103222.94;4995097;28;20121;-86
2022/01/11 06:38:15;;;;;;;0.10;0.10;;;;;;;4.00;67.62;103223.91;4994486;28;20022;-87
2022/01/11 06:40:42;;;;;;;0.20;0.20;;;;;;;4.00;67.61;103226.50;4994798;28;20072;-80
2022/01/11 06:43:08;;;;;;;0.50;0.50;;;;;;;4.02;67.31;103236.25;4994665;28;20034;-87
2022/01/11 06:45:36;;;;;;;0.75;0.75;;;;;;;4.06;67.08;103229.41;4994419;28;20034;-86
2022/01/11 06:48:02;;;;;;;0.28;0.28;;;;;;;4.08;66.80;103233.03;4994711;28;20085;-84
2022/01/11 06:50:33;;;;;;;0.10;0.10;;;;;;;4.11;67.13;103235.81;4994838;28;20049;-78
2022/01/11 06:53:06;;;;;;;0.20;0.20;;;;;;;4.10;66.94;103227.84;4993842;28;20049;-78
2022/01/11 06:55:32;;;;;;;;;;;;;;;4.22;66.67;103228.38;4994786;28;20027;-86
2022/01/11 06:57:58;;;;;;;0.50;0.50;;;;;;;4.01;67.36;103230.94;4994302;28;20364;-86
2022/01/11 07:00:24;;;;;;;0.20;0.20;;;;;;;4.03;67.02;103248.53;4994634;28;20100;-86
2022/01/11 07:02:50;;;;;;;4.65;0.57;;;;;;;4.11;67.22;103243.66;4995821;28;20453;-85
2022/01/11 07:05:18;;;;;;;0.20;0.20;;;;;;;4.08;66.93;103256.63;4995553;28;20124;-86
2022/01/11 07:07:46;;;;;;;0.50;0.50;;;;;;;4.07;67.28;103249.59;4995003;28;20034;-87
2022/01/11 07:10:12;;;;;;;1.40;1.30;;;;;;;4.09;67.15;103252.28;4994512;28;20113;-87
2022/01/11 07:12:38;;;;;;;1.10;1.10;;;;;;;4.08;66.63;103259.25;4994772;28;20031;-86
2022/01/11 07:15:05;;;;;;;0.90;0.90;;;;;;;4.14;66.55;103256.91;4994791;28;20038;-86
2022/01/11 07:17:31;;;;;;;0.43;0.43;;;;;;;4.14;66.70;103264.78;4994313;28;20030;-85
2022/01/11 07:19:57;;;;;;;0.15;0.15;;;;;;;4.16;66.81;103268.38;4992619;28;20493;-86
2022/01/11 07:22:24;;;;;;;2.45;1.65;;;;;;;4.16;66.44;103270.09;4994391;28;20031;-86
2022/01/11 07:24:50;;;;;;;0.35;0.35;;;;;;;4.12;66.65;103274.31;4993717;28;20052;-86
2022/01/11 07:27:16;;;;;;;0.20;0.20;;;;;;;4.14;66.80;103267.41;4994438;28;20038;-85
2022/01/11 07:29:42;;;;;;;0.30;0.30;;;;;;;4.15;66.78;103278.78;4994098;28;20507;-87
2022/01/11 07:32:09;;;;;;;0.55;0.55;;;;;;;4.11;66.60;103280.41;4992285;28;20387;-84
2022/01/11 07:34:35;;;;;;;0.65;0.65;;;;;;;4.14;66.38;103272.66;4993365;28;20027;-85
2022/01/11 07:37:01;;;;;;;0.25;0.25;;;;;;;4.10;66.39;103275.97;4999274;28;20034;-86
2022/01/11 07:39:27;;;;;;;3.53;1.17;;;;;;;4.15;66.67;103277.09;4993958;28;20443;-87
2022/01/11 07:41:53;;;;;;;0.65;0.65;;;;;;;4.13;66.60;103285.72;4993672;28;20029;-84
2022/01/11 07:44:19;;;;;;;0.20;0.20;;;;;;;4.10;66.27;103286.47;4993430;28;20034;-87
2022/01/11 07:46:46;;;;;;;1.58;1.55;;;;;;;4.11;66.27;103287.34;4993104;28;20030;-84
2022/01/11 07:49:13;;;;;;;0.20;0.20;;;;;;;4.11;66.32;103298.78;4993511;28;20451;-86
2022/01/11 07:51:39;;;;;;;2.28;0.63;;;;;;;4.08;66.23;103292.47;4991900;28;20121;-86
2022/01/11 07:54:06;;;;;;;1.45;1.08;;;;;;;4.06;66.38;103300.25;4991741;28;20469;-81
2022/01/11 07:56:33;;;;;;;0.57;0.57;;;;;;;4.07;66.04;103302.06;4992193;28;20046;-87
2022/01/11 07:58:59;;;;;;;0.20;0.20;;;;;;;4.03;66.22;103306.25;4996601;28;20071;-81
2022/01/11 08:01:25;;;;;;;0.10;0.10;;;;;;;4.01;66.36;103307.00;4993102;28;20499;-86
2022/01/11 08:03:51;;;;;;;0.20;0.20;;;;;;;3.98;66.74;103304.25;4992018;28;20027;-86
2022/01/11 08:06:17;;;;;;;0.10;0.10;;;;;;;3.97;66.32;103315.56;4991771;28;20058;-85
2022/01/11 08:08:43;;;;;;;0.13;0.13;;;;;;;3.94;66.68;103316.34;4991858;28;20062;-85
2022/01/11 08:11:10;;;;;;;0.68;0.68;;;;;;;3.92;66.81;103320.59;4993018;28;20022;-87
2022/01/11 08:13:37;;;;;;;0.65;0.65;;;;;;;3.93;66.77;103329.38;4993130;28;20436;-82
2022/01/11 08:16:04;;;;;;;0.22;0.22;;;;;;;3.92;66.86;103319.72;4991599;28;20038;-80
2022/01/11 08:18:30;;;;;;;0.20;0.20;;;;;;;3.91;66.98;103323.16;4991608;28;20040;-86
2022/01/11 08:20:56;;;;;;;0.40;0.40;;;;;;;3.92;66.78;103310.09;4991633;28;20026;-86
2022/01/11 08:23:22;;;;;;;1.02;1.02;;;;;;;3.87;67.04;103307.25;4991147;28;20039;-85
2022/01/11 08:25:49;;;;;;;0.20;0.20;;;;;;;3.88;66.86;103306.44;4992793;28;20042;-85
2022/01/11 08:28:15;;;;;;;0.50;0.50;;;;;;;3.89;67.07;103305.63;4986142;28;20026;-86
2022/01/11 08:30:41;;;;;;;0.30;0.30;;;;;;;3.86;66.73;103302.88;4992266;28;20034;-86
2022/01/11 08:33:09;;;;;;;5.55;0.82;;;;;;;3.84;66.66;103304.50;4992438;28;20026;-85
2022/01/11 08:35:35;;;;;;;5.13;1.20;;;;;;;3.86;66.95;103304.56;4992344;28;20381;-87
2022/01/11 08:38:02;;;;;;;2.25;2.08;;;;;;;3.86;67.10;103309.81;4992336;28;20034;-87
2022/01/11 08:40:28;;;;;;;0.10;0.10;;;;;;;3.93;66.90;103313.66;4993482;28;20034;-92
2022/01/11 08:42:55;;;;;;;0.15;0.15;;;;;;;3.96;66.86;103317.31;4993204;28;20058;-90
2022/01/11 08:45:22;;;;;;;0.10;0.10;;;;;;;3.95;66.45;103311.97;4991315;28;20082;-90
2022/01/11 08:47:59;;;;;;;0.90;0.82;;;;;;;4.00;66.62;103321.88;4994939;28;20483;-94
2022/01/11 08:50:30;;;;;;;0.20;0.20;;;;;;;4.07;66.89;103323.03;4996691;28;20042;-92
2022/01/11 08:52:57;;;;;;;0.20;0.20;;;;;;;4.04;66.90;103317.66;4996502;28;20038;-92
2022/01/11 08:55:24;;;;;;;0.10;0.10;;;;;;;4.04;66.70;103312.44;4997115;28;20050;-87
2022/01/11 08:57:51;;;;;;;1.05;1.00;;;;;;;4.02;66.57;103317.56;4997392;28;20034;-94
2022/01/11 09:00:18;;;;;;;0.20;0.20;;;;;;;4.05;66.84;103319.47;4997916;28;20034;-92
2022/01/11 09:02:46;;;;;;;0.85;0.85;;;;;;;4.06;66.56;103321.25;4996610;28;20034;-92
2022/01/11 09:05:13;;;;;;;1.58;1.50;;;;;;;4.06;66.33;103321.25;4997320;28;20038;-88
2022/01/11 09:07:39;;;;;;;0.10;0.10;;;;;;;4.06;66.62;103321.25;4996472;28;20034;-92
2022/01/11 09:10:07;;;;;;;0.60;0.60;;;;;;;4.07;66.37;103328.28;4994512;28;20393;-91
2022/01/11 09:12:34;;;;;;;0.20;0.20;;;;;;;4.08;66.69;103323.97;4995013;28;20033;-94
2022/01/11 09:15:01;;;;;;;0.20;0.20;;;;;;;4.09;66.64;103334.53;4994993;28;20034;-92
2022/01/11 09:17:27;;;;;;;0.20;0.20;;;;;;;4.08;66.53;103334.47;5000696;28;20033;-94
2022/01/11 09:19:53;;;;;;;0.10;0.10;;;;;;;4.09;66.71;103345.03;4994712;28;20058;-89
2022/01/11 09:22:20;;;;;;;0.28;0.28;;;;;;;4.08;66.83;103340.59;4995216;28;20027;-94
2022/01/11 09:24:47;;;;;;;0.98;0.98;;;;;;;4.08;66.33;103344.94;4997901;28;20034;-88
2022/01/11 09:27:14;;;;;;;0.13;0.13;;;;;;;4.08;66.72;103347.56;4993533;28;20027;-94
2022/01/11 09:29:43;;;;;;;0.20;0.20;;;;;;;4.11;66.30;103340.75;5003934;28;20421;-89
2022/01/11 09:32:17;;;;;;;0.10;0.10;;;;;;;4.15;66.44;103347.94;5012696;28;20062;-96
2022/01/11 09:34:47;;;;;;;0.20;0.20;;;;;;;4.16;66.47;103341.88;5005492;28;20027;-93
2022/01/11 09:37:13;;;;;;;0.10;0.10;;;;;;;4.11;66.71;103343.38;4993919;28;20504;-93
2022/01/11 09:39:42;;;;;;;0.73;0.73;;;;;;;4.19;66.32;103343.72;4997705;28;20705;-90
2022/01/11 09:42:09;;;;;;;0.10;0.10;;;;;;;4.22;66.75;103346.47;4999158;28;20102;-89
2022/01/11 09:44:39;;;;;;;0.20;0.20;;;;;;;4.27;66.64;103346.69;4994494;28;20384;-95
2022/01/11 09:47:08;;;;;;;0.10;0.10;;;;;;;4.28;66.38;103344.13;4998199;28;20058;-96
2022/01/11 09:49:34;;;;;;;0.10;0.10;;;;;;;4.27;66.48;103347.59;4986638;28;20023;-94
2022/01/11 09:52:06;;;;;;;0.17;0.17;;;;;;;4.27;66.66;103341.47;4988077;28;20038;-93
2022/01/11 09:54:38;;;;;;;0.20;0.20;;;;;;;4.35;66.13;103350.59;4995583;28;20034;-93
2022/01/11 09:57:05;;;;;;;1.80;1.20;;;;;;;4.34;66.13;103351.41;4990307;28;20041;-96
2022/01/11 09:59:32;;;;;;;0.40;0.40;;;;;;;4.35;66.28;103353.22;4985868;28;20030;-90
2022/01/11 10:01:58;;;;;;;1.02;1.02;;;;;;;4.36;66.26;103355.91;4982439;28;20513;-89
2022/01/11 10:04:31;;;;;;;1.55;1.45;;;;;;;4.42;65.86;103352.66;4991403;28;20461;-86
2022/01/11 10:07:02;;;;;;;0.20;0.20;;;;;;;4.41;66.22;103358.75;4989762;28;20031;-86
2022/01/11 10:09:35;;;;;;;0.68;0.68;;;;;;;4.43;66.17;103349.19;4993048;28;20488;-93
2022/01/11 10:12:02;;;;;;;0.20;0.20;;;;;;;4.43;66.30;103343.94;4999644;28;20089;-93
2022/01/11 10:14:32;;;;;;;0.17;0.17;;;;;;;4.44;65.63;103351.00;4991617;28;20034;-89
2022/01/11 10:20:31;;;;;;;0.10;0.10;;;;;;;4.66;65.92;103341.47;5175860;27;20156;-95
2022/01/11 10:23:00;;;;;;;0.20;0.20;;;;;;;4.69;66.59;103346.88;5010266;27;3768624;-89
2022/01/11 10:25:27;;;;;;;0.10;0.10;;;;;;;4.72;66.44;103341.72;5096485;28;20027;-88
2022/01/11 10:30:37;;;;;;;1.10;0.70;;;;;;;4.97;66.03;103338.47;5071406;27;20485;-85
2022/01/11 10:33:08;;;;;;;0.65;0.65;;;;;;;5.14;65.81;103346.19;5058017;28;20455;-96
2022/01/11 10:35:42;;;;;;;0.10;0.10;;;;;;;5.21;65.56;103339.44;5065978;28;20033;-96
2022/01/11 10:38:09;;;;;;;0.10;0.10;;;;;;;5.26;65.14;103346.72;5060509;28;20127;-87
2022/01/11 10:40:39;;;;;;;0.57;0.57;;;;;;;5.32;64.51;103351.31;5050350;28;20116;-93
2022/01/11 10:43:08;;;;;;;0.10;0.10;;;;;;;5.34;64.25;103349.66;5049888;28;20121;-89
2022/01/11 10:45:38;;;;;;;0.30;0.30;;;;;;;5.31;63.88;103353.06;5050590;28;20031;-93
2022/01/11 10:48:12;;;;;;;1.08;1.08;;;;;;;5.35;64.02;103356.72;5069654;22;20056;-84
2022/01/11 10:50:42;;;;;;;0.10;0.10;;;;;;;5.27;63.79;103360.72;5048683;28;20128;-84
2022/01/11 10:53:15;;;;;;;0.45;0.45;;;;;;;5.27;64.02;103360.72;5038918;28;20459;-84
2022/01/11 10:55:42;;;;;;;0.20;0.20;;;;;;;5.27;63.85;103369.53;5049374;28;20051;-83
2022/01/11 10:58:12;;;;;;;0.13;0.13;;;;;;;5.28;63.54;103380.94;5048530;28;20431;-83
2022/01/11 11:03:43;;;;;;;0.40;0.40;;;;;;;5.21;63.49;103364.03;5079140;27;20202;-81
2022/01/11 11:06:11;;;;;;;0.65;0.65;;;;;;;5.24;63.75;103358.88;5060899;28;20043;-86
2022/01/11 11:08:41;;;;;;;0.77;0.77;;;;;;;5.26;63.72;103357.22;5052215;28;20056;-84
2022/01/11 11:13:59;;;;;;;0.15;0.15;;;;;;;5.51;63.83;103361.78;5072167;27;20409;-86
2022/01/11 11:16:29;;;;;;;0.38;0.38;;;;;;;5.62;63.93;103346.44;5067325;28;20033;-83
2022/01/11 11:18:57;;;;;;;0.10;0.10;;;;;;;5.77;64.37;103355.78;5050548;28;20155;-85
2022/01/11 11:21:39;;;;;;;0.20;0.20;;;;;;;5.99;62.84;103358.50;5050252;28;20396;-85
2022/01/11 11:24:11;;;;;;;0.30;0.30;;;;;;;6.01;63.13;103355.91;5053611;28;20476;-85
2022/01/11 11:26:45;;;;;;;3.00;1.85;;;;;;;6.15;62.30;103354.69;5050584;28;20045;-85
2022/01/11 11:29:12;;;;;;;0.15;0.15;;;;;;;6.25;61.90;103360.34;5046087;28;20022;-85
2022/01/11 11:31:40;;;;;;;0.10;0.10;;;;;;;6.39;61.19;103355.59;5051652;28;20052;-85
2022/01/11 11:34:09;;;;;;;0.10;0.10;;;;;;;6.32;60.08;103362.38;5048132;28;20033;-85
2022/01/11 11:36:37;;;;;;;0.20;0.20;;;;;;;6.49;60.33;103355.09;5048280;28;20141;-84
2022/01/11 11:39:11;;;;;;;3.70;3.10;;;;;;;6.70;59.95;103359.38;5053338;28;20112;-85
2022/01/11 11:41:41;;;;;;;0.20;0.20;;;;;;;6.76;59.54;103360.47;5045870;28;20115;-85
2022/01/11 11:44:10;;;;;;;3.40;1.30;;;;;;;6.87;59.47;103360.00;5047798;28;20033;-85
2022/01/11 11:46:59;;;;;;;0.10;0.10;;;;;;;6.88;58.09;103374.94;5045958;28;20041;-86
2022/01/11 11:49:50;;;;;;;0.10;0.10;;;;;;;7.10;59.24;103366.97;5053077;28;20033;-85
2022/01/11 11:54:58;;;;;;;0.10;0.10;;;;;;;7.24;58.65;103374.44;5062801;27;21128;-85
2022/01/11 11:57:27;;;;;;;0.10;0.10;;;;;;;7.30;57.73;103374.66;5044170;28;20083;-85